Terminal Aerodrome Forecast
Issued by NWS Shreveport, LA

Home | Current Version | Previous Version | Text Only | Print | Product List | Glossary On
Versions: 1 2 3 4 5 6 7 8 9 10 11 12 13 14 15 16 17 18
507
FTUS44 KSHV 261742
TAFLFK
TAF
KLFK 261742Z 2618/2718 18012G18KT P6SM FEW020 SCT030 OVC035
     FM262000 18015G22KT P6SM BKN035 OVC045
     FM270100 17010KT P6SM BKN050
     FM270400 16009KT P6SM OVC015
     FM270700 17008KT P6SM BKN005 OVC010
     FM271600 19012G18KT P6SM BKN015 OVC025=

USA.gov is the U.S. government's official web portal to all federal, state and local government web resources and services.